Mae Hong Son, Thailand

3:54 PM ICT on May 23, 2015 (GMT +0700)
Mae Hong Son | | Change Station
CLOSE
Current Station
Airport
Location: Mae Hong Son,
Elevation: 928 ft
Nearby Weather Stations

Elev 928 ft 19.30 °N, 97.97 °E | Updated 54 minutes ago

Scattered Clouds
Scattered Clouds
86 °F
Feels Like 90 °F
N
5
Wind Variable Wind from Variable

Today
High -- | Low -- °F
--% Chance of Precip.
Yesterday
High -- | Low -- °F
Precip. -- in
5:50 AM 6:58 PM
Waxing Crescent, 28% visible
Pressure 29.68 in
Visibility 6.2 miles
Clouds Scattered Clouds 2500 ft
Heat Index 90 °F
Dew Point 70 °F
Humidity 58%
Rainfall 0.00 in
Snow Depth Not available.
UV 10 out of 12
Pollen Not available.
Air Quality Not available.
Flu Activity Not available.
METAR VTCH 230800Z VRB04KT 9999 SCT025 30/21 Q1005 A2967

More Conditions Fewer Conditions

Pressure 29.68 in
Visibility 6.2 miles
Clouds Scattered Clouds 2500 ft
Heat Index 90 °F
Dew Point 70 °F
Humidity 58%
Rainfall 0.00 in
Snow Depth Not available.
UV 10 out of 12
Pollen Not available.
Air Quality Not available.
Flu Activity Not available.
METAR VTCH 230800Z VRB04KT 9999 SCT025 30/21 Q1005 A2967

More Conditions Fewer Conditions

10-Day Weather Forecast

Almanac

Astronomy

May. 23, 2015 Rise Set
Actual Time
Civil Twilight
Nautical Twilight
Astronomical Twilight
Moon
Length of Visible Light
Length of Day
Tomorrow will be .
, % of the Moon is Illuminated

Today's Extremes

Country Highs Country Lows

Community

WunderPhotos

Upload Photos

1,823,403 photos uploaded!

WunderBlogs® & News

Nearby

Air Quality

  Air Quality AQ Index Pollutant
Not available.

Snow Depth

Station Depth Elevation

Earthquake Activity

City Distance Mag. Time & Date
Minimum magnitude displayed is 2.5.

Coastal Water Temperatures

Place Temperature

Stations

Nearby Weather Stations

Station Location Temp. Windchill Dew Point Humidity Wind Precip. Elev Updated Type